Time;durP1;ratioP1;P1;durP2;ratioP2;P2;SDS_P1;SDS_P2;PMS_P1;PMS_P2;Temp;Humidity;BMP_temperature;BMP_pressure;BME280_temperature;BME280_humidity;BME280_pressure;Samples;Min_cycle;Max_cycle;Signal;HPM_P1;HPM_P2
2022/06/26 00:00:47;;;;;;;32.28;19.70;;;;;;;19.01;82.60;101136.97;5010815;28;20048;-58
2022/06/26 00:03:13;;;;;;;31.40;20.10;;;;;;;19.02;82.35;101138.72;5011175;28;20441;-58
2022/06/26 00:05:38;;;;;;;33.53;21.40;;;;;;;19.01;82.63;101144.91;5011347;28;20052;-58
2022/06/26 00:08:04;;;;;;;35.63;22.92;;;;;;;19.00;83.02;101150.19;5011183;28;20028;-58
2022/06/26 00:10:29;;;;;;;37.13;22.75;;;;;;;19.01;82.75;101146.66;5011392;28;20026;-58
2022/06/26 00:12:55;;;;;;;37.22;22.65;;;;;;;19.00;82.38;101139.63;5010499;28;20026;-58
2022/06/26 00:15:21;;;;;;;37.25;22.83;;;;;;;18.99;82.24;101144.03;5011255;28;20190;-58
2022/06/26 00:17:46;;;;;;;37.45;22.75;;;;;;;19.01;82.63;101154.59;5011187;28;20076;-58
2022/06/26 00:20:11;;;;;;;40.92;23.80;;;;;;;18.97;82.72;101155.50;5011082;28;20021;-58
2022/06/26 00:22:37;;;;;;;39.38;24.15;;;;;;;18.96;82.67;101159.00;5011188;28;20022;-58
2022/06/26 00:25:03;;;;;;;41.88;23.98;;;;;;;18.96;82.67;101170.47;5011169;28;20022;-58
2022/06/26 00:27:29;;;;;;;40.60;23.02;;;;;;;18.95;82.54;101163.44;5010682;28;20488;-58
2022/06/26 00:29:54;;;;;;;39.05;22.95;;;;;;;18.91;82.05;101159.91;5010978;28;20551;-58
2022/06/26 00:32:20;;;;;;;41.60;24.23;;;;;;;18.89;82.03;101161.69;5010156;28;20126;-58
2022/06/26 00:34:45;;;;;;;43.10;25.38;;;;;;;18.87;82.22;101168.75;5010543;28;20033;-58
2022/06/26 00:37:10;;;;;;;42.00;24.77;;;;;;;18.89;82.17;101171.41;5011262;28;20429;-58
2022/06/26 00:39:36;;;;;;;40.85;24.75;;;;;;;18.87;83.04;101176.69;5007698;28;20022;-58
2022/06/26 00:42:01;;;;;;;42.88;25.02;;;;;;;18.88;82.75;101183.69;5009875;28;20037;-58
2022/06/26 00:44:27;;;;;;;40.85;24.63;;;;;;;18.87;82.32;101176.69;5011118;28;20030;-58
2022/06/26 00:46:53;;;;;;;38.58;23.13;;;;;;;18.87;82.21;101181.06;5011143;28;20028;-58
2022/06/26 00:49:19;;;;;;;36.80;23.00;;;;;;;18.86;82.93;101192.50;5010589;28;20079;-58
2022/06/26 00:51:51;;;;;;;38.70;23.95;;;;;;;18.82;82.47;101188.97;5010573;28;20025;-58
2022/06/26 00:54:17;;;;;;;42.50;22.77;;;;;;;18.82;82.14;101188.13;5010258;28;20033;-58
2022/06/26 00:56:43;;;;;;;40.17;22.00;;;;;;;18.80;82.03;101198.69;5009805;28;20034;-58
2022/06/26 00:59:09;;;;;;;37.70;20.75;;;;;;;18.80;82.00;101205.72;5009902;28;20041;-58
2022/06/26 01:01:34;;;;;;;37.72;20.85;;;;;;;18.76;82.20;101202.22;5010820;28;20025;-58
2022/06/26 01:04:01;;;;;;;39.60;21.35;;;;;;;18.71;82.25;101194.34;5010473;28;20116;-58
2022/06/26 01:06:27;;;;;;;34.47;21.05;;;;;;;18.69;82.98;101198.72;5010366;28;20014;-58
2022/06/26 01:08:52;;;;;;;36.60;20.63;;;;;;;18.63;83.16;101192.63;5010176;28;20026;-58
2022/06/26 01:11:18;;;;;;;38.88;20.73;;;;;;;18.58;83.11;101196.16;5009513;28;20033;-58
2022/06/26 01:13:45;;;;;;;34.47;19.65;;;;;;;18.60;82.90;101202.28;5010533;28;20042;-58
2022/06/26 01:16:13;;;;;;;41.47;20.85;;;;;;;18.60;83.04;101198.78;5010240;28;20024;-58
2022/06/26 01:18:39;;;;;;;38.78;20.88;;;;;;;18.59;82.88;101195.22;5010376;28;20045;-58
2022/06/26 01:21:05;;;;;;;37.85;20.92;;;;;;;18.60;83.02;101209.34;5010463;28;20028;-58
2022/06/26 01:23:30;;;;;;;39.70;21.67;;;;;;;18.59;82.94;101216.34;5008954;28;20033;-58
2022/06/26 01:25:55;;;;;;;39.78;21.95;;;;;;;18.57;82.90;101210.22;5009943;28;20037;-58
2022/06/26 01:28:21;;;;;;;42.70;24.15;;;;;;;18.55;82.23;101212.00;5010104;28;20104;-58
2022/06/26 01:30:46;;;;;;;42.22;23.02;;;;;;;18.51;83.11;101217.25;5010066;28;20018;-58
2022/06/26 01:33:11;;;;;;;41.85;21.85;;;;;;;18.48;83.04;101214.63;5010243;28;20041;-58
2022/06/26 01:35:37;;;;;;;42.22;22.67;;;;;;;18.42;82.76;101221.72;5009367;28;20033;-58
2022/06/26 01:38:10;;;;;;;43.50;23.15;;;;;;;18.43;83.17;101222.56;5010027;28;20026;-58
2022/06/26 01:40:36;;;;;;;45.53;23.98;;;;;;;18.41;83.54;101213.78;5010000;28;20359;-58
2022/06/26 01:43:01;;;;;;;44.38;22.92;;;;;;;18.36;83.14;101216.41;5009510;28;20314;-58
2022/06/26 01:45:26;;;;;;;46.22;24.55;;;;;;;18.32;82.82;101217.34;5010003;28;20534;-58
2022/06/26 01:47:54;;;;;;;49.05;25.27;;;;;;;18.26;83.14;101214.69;5010345;28;20129;-59
2022/06/26 01:50:20;;;;;;;46.92;24.73;;;;;;;18.20;83.15;101218.22;5008356;28;20101;-58
2022/06/26 01:52:45;;;;;;;47.85;25.40;;;;;;;18.19;83.41;101213.84;5010022;28;20109;-58
2022/06/26 01:55:10;;;;;;;51.05;26.00;;;;;;;18.19;83.26;101211.22;5010273;28;20029;-58
2022/06/26 01:57:36;;;;;;;55.03;26.38;;;;;;;18.15;83.42;101211.22;5009773;28;20370;-57
2022/06/26 02:00:01;;;;;;;52.20;26.27;;;;;;;18.10;83.60;101216.47;5009628;28;20030;-57
2022/06/26 02:02:26;;;;;;;52.88;26.98;;;;;;;18.07;83.65;101209.47;5008350;28;20104;-57
2022/06/26 02:04:52;;;;;;;53.80;27.83;;;;;;;18.06;83.74;101207.72;5013711;28;20026;-57
2022/06/26 02:07:17;;;;;;;55.85;26.65;;;;;;;18.04;83.48;101198.91;5013488;28;20041;-57
2022/06/26 02:15:10;;;;;;;54.60;26.42;;;;;;;17.96;83.72;101195.44;5012713;28;20547;-57
2022/06/26 02:17:35;;;;;;;50.67;26.80;;;;;;;17.97;83.76;101186.63;5013390;28;20034;-57
2022/06/26 02:20:01;;;;;;;57.47;26.65;;;;;;;17.98;83.58;101182.25;5013381;28;20505;-57
2022/06/26 02:22:26;;;;;;;55.95;27.73;;;;;;;17.96;84.02;101183.97;5013575;28;20120;-57
2022/06/26 02:24:51;;;;;;;52.03;27.20;;;;;;;17.97;83.33;101193.66;5013402;28;20022;-57
2022/06/26 02:27:17;;;;;;;51.58;26.95;;;;;;;17.97;83.88;101191.88;5013571;28;20076;-57
2022/06/26 02:29:42;;;;;;;51.55;26.00;;;;;;;17.97;83.42;101180.47;5012528;28;20021;-57
2022/06/26 02:32:08;;;;;;;56.90;26.67;;;;;;;17.93;83.31;101190.16;5013314;28;20034;-57
2022/06/26 02:34:33;;;;;;;49.53;25.60;;;;;;;17.94;83.40;101191.03;5013245;28;20022;-57
2022/06/26 02:36:58;;;;;;;54.58;26.63;;;;;;;17.89;83.12;101202.41;5013118;28;20109;-57
2022/06/26 02:39:24;;;;;;;50.10;25.45;;;;;;;17.84;83.52;101200.66;5012559;28;20029;-57
2022/06/26 02:41:49;;;;;;;55.65;25.83;;;;;;;17.85;82.90;101216.47;5013137;28;20029;-57
2022/06/26 02:44:16;;;;;;;53.88;26.35;;;;;;;17.85;83.04;101229.66;5013075;28;20105;-57
2022/06/26 02:46:42;;;;;;;51.13;25.42;;;;;;;17.79;83.08;101219.13;5013057;28;20088;-57
2022/06/26 02:49:07;;;;;;;49.30;25.42;;;;;;;17.77;82.82;101226.16;5012995;28;20029;-57
2022/06/26 02:51:32;;;;;;;52.25;26.02;;;;;;;17.78;82.66;101225.25;5013160;28;20022;-57
2022/06/26 02:53:58;;;;;;;48.25;22.73;;;;;;;17.72;80.98;101222.63;5012283;28;20521;-57
2022/06/26 02:56:23;;;;;;;46.35;22.77;;;;;;;17.68;81.30;101236.69;5012630;28;20549;-58
2022/06/26 02:58:48;;;;;;;47.10;20.33;;;;;;;17.58;80.93;101227.88;5012902;28;20030;-58
2022/06/26 03:01:13;;;;;;;40.30;19.63;;;;;;;17.52;81.24;101236.69;5012757;28;20061;-58
2022/06/26 03:03:39;;;;;;;41.13;20.58;;;;;;;17.42;81.31;101234.91;5012636;28;20045;-58
2022/06/26 03:06:04;;;;;;;40.30;18.83;;;;;;;17.41;81.25;101238.44;5011248;28;20038;-58
2022/06/26 03:08:29;;;;;;;41.03;19.00;;;;;;;17.39;81.49;101234.91;5011972;28;20109;-58
2022/06/26 03:10:55;;;;;;;40.67;18.38;;;;;;;17.36;81.62;101234.91;5012435;28;20024;-58
2022/06/26 03:13:20;;;;;;;36.95;17.98;;;;;;;17.34;81.31;101232.25;5012717;28;20052;-58
2022/06/26 03:15:45;;;;;;;36.78;18.10;;;;;;;17.35;81.45;101246.31;5011430;28;20018;-58
2022/06/26 03:18:11;;;;;;;37.95;18.90;;;;;;;17.33;81.20;101246.31;5012243;28;20026;-57
2022/06/26 03:20:36;;;;;;;37.65;19.08;;;;;;;17.31;81.46;101255.09;5012038;28;20077;-58
2022/06/26 03:23:01;;;;;;;37.55;18.02;;;;;;;17.27;81.51;101261.22;5012332;28;20061;-58
2022/06/26 03:25:27;;;;;;;36.50;17.92;;;;;;;17.27;81.54;101259.47;5012267;28;20037;-58
2022/06/26 03:27:53;;;;;;;38.58;18.80;;;;;;;17.21;81.53;101257.69;5012411;28;20113;-57
2022/06/26 03:30:18;;;;;;;36.47;17.80;;;;;;;17.24;81.28;101263.84;5012093;28;20017;-57
2022/06/26 03:32:44;;;;;;;38.10;18.30;;;;;;;17.23;81.11;101256.81;5012045;28;20025;-57
2022/06/26 03:35:10;;;;;;;39.95;18.98;;;;;;;17.21;81.36;101255.06;5011265;28;20037;-57
2022/06/26 03:37:36;;;;;;;39.53;18.77;;;;;;;17.23;81.24;101260.31;5011806;28;20030;-57
2022/06/26 03:40:01;;;;;;;37.30;17.67;;;;;;;17.21;81.52;101278.75;5012146;28;20079;-57
2022/06/26 03:42:27;;;;;;;38.58;17.25;;;;;;;17.21;81.20;101285.78;5012012;28;20473;-57
2022/06/26 03:44:52;;;;;;;36.40;17.08;;;;;;;17.21;81.08;101294.56;5011230;28;20548;-58
2022/06/26 03:47:17;;;;;;;36.70;16.92;;;;;;;17.14;81.15;101290.13;5011816;28;20101;-58
2022/06/26 03:49:43;;;;;;;37.03;17.85;;;;;;;17.07;81.21;101296.25;5011928;28;20022;-58
2022/06/26 03:52:08;;;;;;;32.17;16.13;;;;;;;17.05;81.29;101292.75;5011496;28;20477;-57
2022/06/26 03:54:34;;;;;;;35.92;17.20;;;;;;;17.02;81.53;101298.00;5011642;28;20034;-58
2022/06/26 03:57:00;;;;;;;35.25;16.38;;;;;;;16.99;81.51;101298.00;5011699;28;20135;-58
2022/06/26 03:59:25;;;;;;;32.58;15.57;;;;;;;16.99;81.21;101303.28;5010861;28;20431;-58
2022/06/26 04:01:50;;;;;;;35.75;16.67;;;;;;;16.95;81.46;101297.09;5010325;28;20405;-58
2022/06/26 04:04:16;;;;;;;33.72;15.50;;;;;;;16.93;81.60;101293.59;5011533;28;20077;-58
2022/06/26 04:06:41;;;;;;;34.58;15.02;;;;;;;16.93;81.21;101293.59;5011532;28;20064;-57
2022/06/26 04:09:06;;;;;;;34.22;15.60;;;;;;;16.90;81.74;101283.03;5011437;28;20079;-58
2022/06/26 04:11:32;;;;;;;32.75;14.80;;;;;;;16.87;81.49;101277.72;5010770;28;20092;-58
2022/06/26 04:13:57;;;;;;;31.65;15.07;;;;;;;16.87;81.79;101288.22;5010790;28;20049;-58
2022/06/26 04:16:23;;;;;;;29.90;14.75;;;;;;;16.86;81.70;101287.38;5011265;28;20028;-58
2022/06/26 04:18:48;;;;;;;31.60;13.70;;;;;;;16.85;81.18;101292.63;5011109;28;20077;-58
2022/06/26 04:21:14;;;;;;;27.50;13.18;;;;;;;16.83;80.80;101299.66;5010952;28;20015;-58
2022/06/26 04:23:39;;;;;;;32.40;14.15;;;;;;;16.80;81.40;101300.50;5011119;28;20048;-58
2022/06/26 04:26:05;;;;;;;31.17;13.90;;;;;;;16.77;81.47;101303.13;5009101;28;20033;-57
2022/06/26 04:28:31;;;;;;;30.20;12.90;;;;;;;16.76;81.34;101316.28;5011265;28;20524;-58
2022/06/26 04:30:56;;;;;;;33.60;13.45;;;;;;;16.74;81.43;101316.25;5010047;28;20117;-58
2022/06/26 04:33:22;;;;;;;29.77;13.20;;;;;;;16.74;81.30;101321.50;5010977;28;20100;-58
2022/06/26 04:35:47;;;;;;;28.90;12.88;;;;;;;16.74;81.43;101328.53;5010145;28;20494;-57
2022/06/26 04:38:13;;;;;;;30.10;12.60;;;;;;;16.73;82.15;101338.19;5010854;28;20028;-58
2022/06/26 04:40:38;;;;;;;31.48;13.45;;;;;;;16.72;81.64;101335.56;5010973;28;20029;-57
2022/06/26 04:43:03;;;;;;;28.50;13.63;;;;;;;16.72;82.13;101348.69;5010709;28;20030;-58
2022/06/26 04:45:28;;;;;;;30.85;14.02;;;;;;;16.69;82.51;101347.78;5010755;28;20026;-58
2022/06/26 04:47:54;;;;;;;32.30;13.48;;;;;;;16.69;82.51;101347.78;5010216;28;20029;-57
2022/06/26 04:50:19;;;;;;;35.15;13.98;;;;;;;16.67;82.65;101359.22;5010456;28;20024;-58
2022/06/26 04:52:46;;;;;;;31.48;13.68;;;;;;;16.66;83.17;101357.44;5010831;28;20045;-57
2022/06/26 04:55:12;;;;;;;29.55;13.23;;;;;;;16.66;82.91;101358.31;5010561;28;20088;-58
2022/06/26 04:57:37;;;;;;;32.95;13.35;;;;;;;16.68;82.69;101358.31;5010825;28;20097;-58
2022/06/26 05:00:06;;;;;;;32.28;14.80;;;;;;;16.66;83.50;101357.44;5009192;28;20045;-57
2022/06/26 05:02:32;;;;;;;29.02;13.57;;;;;;;16.66;83.44;101352.19;5010667;28;20034;-58
2022/06/26 05:04:57;;;;;;;35.78;14.35;;;;;;;16.67;83.32;101359.22;5010548;28;20028;-58
2022/06/26 05:07:22;;;;;;;35.03;13.90;;;;;;;16.66;83.93;101365.31;5010581;28;20073;-58
2022/06/26 05:09:48;;;;;;;31.05;13.98;;;;;;;16.69;83.51;101362.72;5010570;28;20030;-58
2022/06/26 05:12:13;;;;;;;33.72;14.55;;;;;;;16.69;83.59;101357.44;5010471;28;20183;-58
2022/06/26 05:14:38;;;;;;;33.08;12.88;;;;;;;16.69;83.94;101362.72;5009628;28;20033;-58
2022/06/26 05:17:04;;;;;;;31.25;13.98;;;;;;;16.70;83.97;101353.97;5009001;28;20099;-58
2022/06/26 05:19:30;;;;;;;34.85;13.90;;;;;;;16.66;83.50;101363.56;5009811;28;20037;-58
2022/06/26 05:21:56;;;;;;;33.95;14.15;;;;;;;16.63;83.61;101368.81;5010452;28;20101;-57
2022/06/26 05:24:21;;;;;;;33.47;14.27;;;;;;;16.61;83.12;101365.31;5010261;28;20156;-58
2022/06/26 05:26:46;;;;;;;32.15;13.90;;;;;;;16.59;83.64;101368.78;4997057;28;20030;-58
2022/06/26 05:29:11;;;;;;;33.38;14.00;;;;;;;16.57;83.52;101360.88;5009457;28;20160;-59
2022/06/26 05:31:37;;;;;;;33.10;14.25;;;;;;;16.58;84.15;101359.13;5009567;28;20025;-59
2022/06/26 05:34:03;;;;;;;32.70;13.27;;;;;;;16.57;83.77;101355.63;5010223;28;20113;-59
2022/06/26 05:36:28;;;;;;;32.15;12.95;;;;;;;16.56;83.52;101347.72;5010285;28;20025;-59
2022/06/26 05:38:54;;;;;;;32.67;12.95;;;;;;;16.54;83.20;101350.34;5012709;28;20395;-59
2022/06/26 05:41:19;;;;;;;30.70;12.57;;;;;;;16.54;83.65;101373.13;5013920;28;20026;-59
2022/06/26 05:43:45;;;;;;;30.90;12.65;;;;;;;16.52;83.33;101371.38;5012198;28;20034;-59
2022/06/26 05:46:11;;;;;;;29.52;12.68;;;;;;;16.52;83.68;101375.75;5012707;28;20022;-59
2022/06/26 05:48:37;;;;;;;32.13;12.80;;;;;;;16.55;83.76;101374.91;5014057;28;20026;-59
2022/06/26 05:51:03;;;;;;;35.33;13.93;;;;;;;16.52;83.82;101389.78;5014399;28;20029;-59
2022/06/26 05:53:28;;;;;;;27.83;12.63;;;;;;;16.52;84.28;101397.69;5012640;28;20100;-59
2022/06/26 05:55:53;;;;;;;31.15;13.73;;;;;;;16.52;83.68;101402.94;5013798;28;20156;-59
2022/06/26 05:58:19;;;;;;;31.50;13.43;;;;;;;16.55;84.37;101407.34;5013148;28;20474;-59
2022/06/26 06:00:44;;;;;;;33.90;12.93;;;;;;;16.55;84.22;101412.59;5013915;28;20034;-59
2022/06/26 06:03:09;;;;;;;33.63;13.32;;;;;;;16.60;84.02;101410.03;5013739;28;20504;-59
2022/06/26 06:05:35;;;;;;;33.45;13.60;;;;;;;16.67;85.19;101407.44;5013722;28;20112;-59
2022/06/26 06:08:01;;;;;;;30.30;13.30;;;;;;;16.74;84.72;101413.59;5012296;28;20404;-59
2022/06/26 06:10:27;;;;;;;32.83;13.63;;;;;;;16.81;84.47;101412.78;5013957;28;20022;-59
2022/06/26 06:12:53;;;;;;;32.22;13.00;;;;;;;16.85;84.29;101413.69;5013681;28;20108;-59
2022/06/26 06:15:19;;;;;;;29.00;13.15;;;;;;;16.90;83.30;101409.41;5013502;28;20038;-59
2022/06/26 06:17:45;;;;;;;34.92;13.82;;;;;;;16.93;83.50;101406.78;5012529;28;20030;-59
2022/06/26 06:20:19;;;;;;;29.40;12.85;;;;;;;16.97;82.70;101410.28;5013060;28;20060;-59
2022/06/26 06:22:53;;;;;;;34.67;13.18;;;;;;;17.03;83.22;101410.31;5013486;28;20401;-59
2022/06/26 06:25:19;;;;;;;31.13;12.57;;;;;;;17.09;84.14;101410.38;5011141;28;20047;-59
2022/06/26 06:27:45;;;;;;;27.05;11.50;;;;;;;17.16;83.58;101404.28;5013305;28;20029;-59
2022/06/26 06:30:11;;;;;;;28.95;11.35;;;;;;;17.23;82.99;101402.53;5013244;28;20034;-59
2022/06/26 06:32:37;;;;;;;30.15;12.48;;;;;;;17.28;83.52;101400.81;5012308;28;20045;-59
2022/06/26 06:35:03;;;;;;;28.23;11.60;;;;;;;17.30;82.20;101404.34;5013333;28;20396;-59
2022/06/26 06:37:29;;;;;;;26.48;11.85;;;;;;;17.33;82.22;101419.28;5013223;28;20037;-59
2022/06/26 06:39:54;;;;;;;29.92;11.25;;;;;;;17.36;81.63;101416.66;5011156;28;20397;-59
2022/06/26 06:42:19;;;;;;;24.38;11.68;;;;;;;17.32;81.06;101422.78;5012961;28;20033;-59
2022/06/26 06:44:45;;;;;;;25.75;11.75;;;;;;;17.34;81.53;101424.56;5012537;28;20069;-59
2022/06/26 06:47:12;;;;;;;24.85;11.63;;;;;;;17.36;82.19;101433.31;5012458;28;20033;-59
2022/06/26 06:49:38;;;;;;;26.30;11.48;;;;;;;17.39;82.00;101445.63;5012607;28;20542;-59
2022/06/26 06:52:04;;;;;;;27.80;12.68;;;;;;;17.37;81.28;101456.16;5012796;28;20473;-59
2022/06/26 06:54:30;;;;;;;24.05;10.90;;;;;;;17.34;81.38;101464.06;5012827;28;20018;-59
2022/06/26 06:56:55;;;;;;;25.48;11.38;;;;;;;17.37;81.81;101463.22;5012595;28;20064;-59
2022/06/26 06:59:21;;;;;;;24.08;11.25;;;;;;;17.41;81.53;101475.53;5012771;28;20068;-59
2022/06/26 07:01:46;;;;;;;32.45;11.68;;;;;;;17.41;81.16;101483.44;5012168;28;20044;-59
2022/06/26 07:04:12;;;;;;;26.27;11.15;;;;;;;17.42;81.64;101490.44;5011758;28;20130;-59
2022/06/26 07:06:37;;;;;;;25.65;11.10;;;;;;;17.45;81.62;101489.59;5012697;28;20026;-58
2022/06/26 07:09:04;;;;;;;27.65;12.43;;;;;;;17.48;81.78;101501.03;5012579;28;20022;-58
2022/06/26 07:11:29;;;;;;;22.55;11.57;;;;;;;17.52;81.40;101508.09;5012757;28;20030;-58
2022/06/26 07:13:54;;;;;;;36.55;12.48;;;;;;;17.53;80.66;101501.91;5011663;28;20037;-58
2022/06/26 07:16:20;;;;;;;27.05;12.63;;;;;;;17.55;81.28;101505.47;5011474;28;20092;-58
2022/06/26 07:18:45;;;;;;;28.27;12.55;;;;;;;17.61;81.78;101509.00;5011809;28;20401;-58
2022/06/26 07:21:11;;;;;;;24.55;11.70;;;;;;;17.65;81.78;101503.72;5012372;28;20488;-58
2022/06/26 07:23:36;;;;;;;25.20;12.32;;;;;;;17.64;80.50;101495.81;5012459;28;20045;-58
2022/06/26 07:26:02;;;;;;;26.45;13.32;;;;;;;17.67;81.15;101499.38;5012227;28;20408;-58
2022/06/26 07:28:28;;;;;;;23.60;12.23;;;;;;;17.70;80.66;101490.59;5011350;28;20044;-58
2022/06/26 07:30:53;;;;;;;27.08;13.20;;;;;;;17.73;80.55;101493.25;5010029;28;20061;-58
2022/06/26 07:36:03;;;;;;;24.63;12.88;;;;;;;17.80;79.98;101505.59;5012356;28;20088;-58
2022/06/26 07:38:29;;;;;;;27.35;13.60;;;;;;;17.82;79.88;101516.13;5010484;28;20038;-58
2022/06/26 07:40:54;;;;;;;27.83;14.32;;;;;;;17.84;80.40;101517.91;5012015;28;20499;-57
2022/06/26 07:43:19;;;;;;;23.52;13.07;;;;;;;17.82;79.97;101501.19;5011799;28;20105;-57
2022/06/26 07:45:45;;;;;;;24.02;14.00;;;;;;;17.79;78.89;101513.50;5011936;28;20393;-58
2022/06/26 07:48:10;;;;;;;25.77;13.43;;;;;;;17.80;79.64;101505.59;5011743;28;20022;-58
2022/06/26 07:50:36;;;;;;;26.55;14.13;;;;;;;17.81;79.83;101509.09;5010857;28;20128;-58
2022/06/26 07:53:01;;;;;;;26.67;13.88;;;;;;;17.83;79.74;101515.22;5010194;28;20049;-58
2022/06/26 07:55:27;;;;;;;23.50;13.02;;;;;;;17.83;78.61;101521.41;5011459;28;20026;-58
2022/06/26 07:57:52;;;;;;;23.38;13.38;;;;;;;17.82;77.95;101508.22;5011442;28;20026;-58
2022/06/26 08:00:17;;;;;;;24.33;14.25;;;;;;;17.83;78.91;101516.13;5011040;28;20037;-58
2022/06/26 08:02:43;;;;;;;21.45;13.02;;;;;;;17.84;78.86;101523.19;5011426;28;20406;-58
2022/06/26 08:05:08;;;;;;;23.77;13.02;;;;;;;17.85;78.63;101524.91;5011094;28;20058;-58
2022/06/26 08:07:33;;;;;;;20.83;11.98;;;;;;;17.87;78.49;101527.56;5010378;28;20032;-58
2022/06/26 08:09:59;;;;;;;22.48;12.07;;;;;;;17.89;78.86;101537.25;5011351;28;20040;-58
2022/06/26 08:12:24;;;;;;;23.70;12.88;;;;;;;17.90;77.40;101533.78;5011289;28;20022;-59
2022/06/26 08:14:49;;;;;;;18.75;12.65;;;;;;;17.93;78.74;101534.66;5009882;28;20044;-58
2022/06/26 08:17:15;;;;;;;25.98;14.50;;;;;;;17.94;78.89;101532.03;5011224;28;20030;-58
2022/06/26 08:19:40;;;;;;;21.48;13.27;;;;;;;17.96;79.08;101527.66;5011118;28;20283;-58
2022/06/26 08:22:05;;;;;;;22.40;13.00;;;;;;;17.98;78.02;101525.03;5011083;28;20068;-58
2022/06/26 08:24:32;;;;;;;23.23;12.57;;;;;;;17.99;78.30;101532.06;5020829;28;20022;-59
2022/06/26 08:26:59;;;;;;;21.13;12.80;;;;;;;17.99;77.95;101538.22;5010080;28;20021;-59
2022/06/26 08:29:25;;;;;;;19.77;12.60;;;;;;;17.97;77.30;101533.78;5011266;28;20033;-58
2022/06/26 08:31:50;;;;;;;21.63;12.75;;;;;;;17.98;77.56;101530.28;5021494;28;20037;-58
2022/06/26 08:34:16;;;;;;;20.85;12.88;;;;;;;17.97;77.09;101524.13;5011164;28;20040;-59
2022/06/26 08:36:42;;;;;;;19.55;12.05;;;;;;;17.97;76.61;101524.13;5011197;28;20500;-58
2022/06/26 08:39:07;;;;;;;20.88;12.07;;;;;;;17.97;77.22;101529.38;5008481;28;20494;-59
2022/06/26 08:41:39;;;;;;;19.80;12.32;;;;;;;18.00;77.52;101521.53;5009877;28;20026;-60
2022/06/26 08:44:04;;;;;;;19.73;12.15;;;;;;;18.01;77.51;101520.63;5010842;28;20021;-60
2022/06/26 08:46:36;;;;;;;20.70;11.55;;;;;;;18.01;76.98;101535.56;5010941;28;20030;-60
2022/06/26 08:49:03;;;;;;;17.52;11.30;;;;;;;18.01;76.43;101546.13;5010875;28;20036;-60
2022/06/26 08:51:29;;;;;;;22.15;11.80;;;;;;;17.99;77.13;101540.84;5010015;28;20121;-59
2022/06/26 08:53:56;;;;;;;21.90;11.68;;;;;;;17.98;77.12;101536.44;5009427;28;20697;-60
2022/06/26 08:56:23;;;;;;;18.65;10.98;;;;;;;17.99;76.63;101542.63;5010334;28;20033;-60
2022/06/26 08:58:48;;;;;;;19.02;11.25;;;;;;;18.01;77.36;101540.84;5010740;28;20025;-60
2022/06/26 09:01:14;;;;;;;17.55;9.85;;;;;;;18.04;76.95;101540.84;5010546;28;20555;-60
2022/06/26 09:03:39;;;;;;;16.17;10.02;;;;;;;18.03;76.07;101539.09;5009965;28;20125;-59
2022/06/26 09:06:05;;;;;;;20.20;10.30;;;;;;;18.06;76.32;101539.09;5008776;28;20117;-60
2022/06/26 09:08:40;;;;;;;18.42;10.70;;;;;;;18.07;76.19;101554.94;5009384;28;20081;-60
2022/06/26 09:11:07;;;;;;;19.63;11.75;;;;;;;18.07;76.30;101546.13;4996937;28;20084;-60
2022/06/26 09:13:40;;;;;;;20.38;12.00;;;;;;;18.09;77.06;101544.41;5010511;28;20028;-60
2022/06/26 09:16:06;;;;;;;18.50;10.70;;;;;;;18.11;77.09;101540.00;5008422;28;20045;-60
2022/06/26 09:18:36;;;;;;;21.80;11.57;;;;;;;18.14;77.34;101537.38;5010281;28;20030;-60
2022/06/26 09:21:04;;;;;;;21.20;11.15;;;;;;;18.13;76.41;101540.88;5008902;28;20092;-60
2022/06/26 09:23:34;;;;;;;20.20;11.27;;;;;;;18.14;77.25;101537.38;5009801;28;20021;-60
2022/06/26 09:26:00;;;;;;;19.00;11.43;;;;;;;18.17;76.32;101529.47;5009040;28;20026;-59
2022/06/26 09:28:27;;;;;;;17.23;10.43;;;;;;;18.17;76.20;101534.75;5010169;28;20030;-60
2022/06/26 09:31:04;;;;;;;16.77;10.45;;;;;;;18.20;76.09;101534.75;5008912;28;20045;-60
2022/06/26 09:33:31;;;;;;;16.23;9.70;;;;;;;18.21;75.51;101549.72;5009412;28;20030;-60
2022/06/26 09:35:58;;;;;;;16.77;10.05;;;;;;;18.23;76.03;101563.81;5010187;28;20022;-60
2022/06/26 09:38:29;;;;;;;16.38;10.27;;;;;;;18.28;76.87;101560.28;5009579;28;20033;-58
2022/06/26 09:40:57;;;;;;;15.88;9.75;;;;;;;18.29;75.92;101551.50;5010046;28;20112;-59
2022/06/26 09:43:29;;;;;;;16.08;9.50;;;;;;;18.27;73.88;101538.28;5009890;28;20053;-58
2022/06/26 09:45:55;;;;;;;14.98;9.50;;;;;;;18.26;74.58;101547.06;5010164;28;20057;-58
2022/06/26 09:48:23;;;;;;;15.05;8.35;;;;;;;18.30;74.53;101555.91;5008193;28;20025;-58
2022/06/26 09:50:49;;;;;;;16.23;8.65;;;;;;;18.32;74.04;101552.41;5010111;28;20084;-58
2022/06/26 09:53:15;;;;;;;14.68;9.25;;;;;;;18.32;73.67;101551.50;5009686;28;20029;-59
2022/06/26 09:55:41;;;;;;;16.25;9.52;;;;;;;18.34;73.65;101549.75;5009962;28;20037;-58
2022/06/26 09:58:08;;;;;;;15.25;9.02;;;;;;;18.36;73.71;101563.81;5007698;28;20110;-59
2022/06/26 10:00:35;;;;;;;13.70;8.73;;;;;;;18.37;73.59;101562.94;5010008;28;20477;-58
2022/06/26 10:08:33;;;;;;;14.38;8.10;;;;;;;18.46;73.90;101568.25;5010243;28;20137;-58
2022/06/26 10:11:01;;;;;;;17.73;8.30;;;;;;;18.50;73.96;101566.50;5009855;28;20026;-58
2022/06/26 10:13:28;;;;;;;12.57;8.20;;;;;;;18.53;74.21;101569.16;5008887;28;20524;-58
2022/06/26 10:16:11;;;;;;;15.85;8.38;;;;;;;18.57;74.77;101576.22;5009365;28;20029;-58
2022/06/26 10:18:42;;;;;;;11.32;7.93;;;;;;;18.60;74.88;101577.06;5009745;28;20029;-58
2022/06/26 10:21:10;;;;;;;13.77;7.57;;;;;;;18.62;74.20;101581.50;5009770;28;20026;-59
2022/06/26 10:23:37;;;;;;;12.77;7.72;;;;;;;18.60;73.88;101585.00;5009118;28;20036;-58
2022/06/26 10:26:22;;;;;;;12.98;7.65;;;;;;;18.65;74.55;101590.28;5013279;28;20265;-58
2022/06/26 10:28:59;;;;;;;14.18;8.00;;;;;;;18.66;73.98;101584.13;5013563;28;20038;-59
2022/06/26 10:31:24;;;;;;;15.20;8.60;;;;;;;18.68;73.87;101570.94;5010711;28;20492;-58
2022/06/26 10:33:50;;;;;;;12.68;8.50;;;;;;;18.69;73.50;101573.56;5013307;28;20033;-58
2022/06/26 10:36:24;;;;;;;13.13;8.40;;;;;;;18.70;72.62;101585.91;5013173;28;20022;-59
2022/06/26 10:38:51;;;;;;;16.15;9.52;;;;;;;18.72;73.93;101585.91;5012113;28;20026;-60
2022/06/26 10:44:05;;;;;;;19.33;10.27;;;;;;;18.79;75.14;101582.41;5013373;28;20040;-60
2022/06/26 10:46:38;;;;;;;18.40;10.05;;;;;;;18.83;74.37;101573.59;5013048;28;20030;-60
2022/06/26 10:49:07;;;;;;;17.50;9.45;;;;;;;18.87;74.20;101583.31;5012172;28;20041;-60
2022/06/26 10:51:33;;;;;;;15.90;9.30;;;;;;;18.91;72.83;101573.63;5012672;28;20050;-60
2022/06/26 10:54:01;;;;;;;16.33;8.23;;;;;;;18.96;72.65;101582.44;5012936;28;20061;-60
2022/06/26 10:56:27;;;;;;;14.57;8.52;;;;;;;18.99;72.63;101579.81;5012761;28;20083;-57
2022/06/26 10:58:59;;;;;;;16.40;9.73;;;;;;;19.04;72.91;101579.81;5013025;28;20029;-58
2022/06/26 11:01:25;;;;;;;17.55;10.25;;;;;;;19.07;73.90;101586.00;5012661;28;20022;-58
2022/06/26 11:03:51;;;;;;;15.77;9.30;;;;;;;19.14;74.47;101576.28;5012031;28;20050;-58
2022/06/26 11:06:16;;;;;;;14.23;8.52;;;;;;;19.20;73.62;101588.59;5011919;28;20036;-58
2022/06/26 11:08:50;;;;;;;15.45;8.68;;;;;;;19.22;72.51;101590.38;5012821;28;20097;-59
2022/06/26 11:11:22;;;;;;;16.98;8.50;;;;;;;19.26;73.35;101581.56;5012412;28;20044;-59
2022/06/26 11:13:53;;;;;;;14.85;8.15;;;;;;;19.29;71.64;101580.66;5012438;28;20076;-59
2022/06/26 11:16:43;;;;;;;17.38;7.88;;;;;;;19.33;72.52;101573.63;5012301;28;20133;-59
2022/06/26 11:19:26;;;;;;;11.88;7.53;;;;;;;19.38;73.34;101569.19;5011642;28;20044;-59
2022/06/26 11:22:03;;;;;;;14.02;6.82;;;;;;;19.41;71.39;101564.81;5012529;28;20543;-59